createdAt,value
2022-12-09T00:00:08.455Z,96112.00
2022-12-09T00:02:35.864Z,96108.00
2022-12-09T00:05:03.687Z,96114.00
2022-12-09T00:07:30.951Z,96113.00
2022-12-09T00:09:57.888Z,96116.00
2022-12-09T00:12:24.680Z,96103.00
2022-12-09T00:14:51.652Z,96105.00
2022-12-09T00:17:18.836Z,96100.00
2022-12-09T00:19:46.913Z,96108.00
2022-12-09T00:22:13.897Z,96104.00
2022-12-09T00:24:40.893Z,96103.00
2022-12-09T00:27:07.696Z,96090.00
2022-12-09T00:29:34.829Z,96087.00
2022-12-09T00:32:01.682Z,96085.00
2022-12-09T00:34:28.566Z,96088.00
2022-12-09T00:36:55.680Z,96092.00
2022-12-09T00:39:22.496Z,96089.00
2022-12-09T00:41:49.918Z,96093.00
2022-12-09T00:44:17.287Z,96081.00
2022-12-09T00:46:44.105Z,96092.00
2022-12-09T00:49:11.538Z,96086.00
2022-12-09T00:51:38.603Z,96086.00
2022-12-09T00:54:05.585Z,96085.00
2022-12-09T00:56:32.722Z,96089.00
2022-12-09T00:59:00.401Z,96083.00
2022-12-09T01:01:28.476Z,96096.00
2022-12-09T01:03:56.415Z,96092.00
2022-12-09T01:06:25.604Z,96088.00
2022-12-09T01:08:52.974Z,96096.00
2022-12-09T01:11:27.918Z,96095.00
2022-12-09T01:13:58.389Z,96092.00
2022-12-09T01:16:29.736Z,96096.00
2022-12-09T01:19:00.342Z,96095.00
2022-12-09T01:21:28.913Z,96092.00
2022-12-09T01:23:55.918Z,96090.00
2022-12-09T01:26:22.696Z,96096.00
2022-12-09T01:28:52.741Z,96086.00
2022-12-09T01:31:23.305Z,96088.00
2022-12-09T01:33:50.567Z,96084.00
2022-12-09T01:36:22.744Z,96091.00
2022-12-09T01:38:50.091Z,96090.00
2022-12-09T01:41:18.892Z,96091.00
2022-12-09T01:43:46.593Z,96087.00
2022-12-09T01:46:13.443Z,96079.00
2022-12-09T01:48:46.528Z,96078.00
2022-12-09T01:51:19.915Z,96078.00
2022-12-09T01:53:50.206Z,96072.00
2022-12-09T01:56:32.794Z,96067.00
2022-12-09T01:59:11.313Z,96070.00
2022-12-09T02:01:40.284Z,96062.00
2022-12-09T02:04:07.884Z,96059.00
2022-12-09T02:06:39.182Z,96064.00
2022-12-09T02:09:06.648Z,96059.00
2022-12-09T02:12:20.551Z,96048.00
2022-12-09T02:15:10.658Z,96051.00
2022-12-09T02:17:42.940Z,96045.00
2022-12-09T02:20:29.396Z,96037.00
2022-12-09T02:23:19.592Z,96042.00
2022-12-09T02:25:48.869Z,96037.00
2022-12-09T02:28:46.744Z,96033.00
2022-12-09T02:32:00.236Z,96037.00
2022-12-09T02:34:32.566Z,96032.00
2022-12-09T02:37:14.634Z,96021.00
2022-12-09T02:39:55.100Z,96021.00
2022-12-09T02:42:26.069Z,96020.00
2022-12-09T02:44:53.326Z,96022.00
2022-12-09T02:47:24.674Z,96019.00
2022-12-09T02:49:57.410Z,96018.00
2022-12-09T02:52:25.303Z,96014.00
2022-12-09T02:54:53.528Z,96009.00
2022-12-09T02:57:26.949Z,96002.00
2022-12-09T02:59:53.879Z,95999.00
2022-12-09T03:02:28.915Z,95988.00
2022-12-09T03:05:24.509Z,95992.00
2022-12-09T03:08:13.421Z,96002.00
2022-12-09T03:11:08.368Z,95992.00
2022-12-09T03:13:56.738Z,96004.00
2022-12-09T03:16:49.548Z,95996.00
2022-12-09T03:19:28.228Z,95988.00
2022-12-09T03:22:00.986Z,95986.00
2022-12-09T03:24:47.369Z,95991.00
2022-12-09T03:27:19.906Z,95999.00
2022-12-09T03:29:49.352Z,95992.00
2022-12-09T03:32:18.828Z,95998.00
2022-12-09T03:34:50.379Z,95997.00
2022-12-09T03:37:20.216Z,95985.00
2022-12-09T03:39:49.538Z,95987.00
2022-12-09T03:42:28.432Z,95996.00
2022-12-09T03:45:01.592Z,95982.00
2022-12-09T03:47:28.658Z,95979.00
2022-12-09T03:49:55.933Z,95967.00
2022-12-09T03:52:46.677Z,95962.00
2022-12-09T03:55:22.412Z,95960.00
2022-12-09T03:57:55.201Z,95957.00
2022-12-09T04:00:22.436Z,95951.00
2022-12-09T04:02:49.943Z,95948.00
2022-12-09T04:05:17.037Z,95951.00
2022-12-09T04:07:44.127Z,95952.00
2022-12-09T04:10:11.499Z,95948.00
2022-12-09T04:12:40.274Z,95959.00
2022-12-09T04:15:10.236Z,95950.00
2022-12-09T04:17:37.767Z,95933.00
2022-12-09T04:20:07.986Z,95934.00
2022-12-09T04:22:35.349Z,95938.00
2022-12-09T04:25:02.272Z,95941.00
2022-12-09T04:27:29.391Z,95952.00
2022-12-09T04:29:56.235Z,95949.00
2022-12-09T04:32:23.164Z,95953.00
2022-12-09T04:34:50.055Z,95952.00
2022-12-09T04:37:16.887Z,95955.00
2022-12-09T04:39:43.696Z,95933.00
2022-12-09T04:42:10.535Z,95935.00
2022-12-09T04:44:37.408Z,95927.00
2022-12-09T04:47:04.723Z,95931.00
2022-12-09T04:49:31.754Z,95934.00
2022-12-09T04:51:58.832Z,95923.00
2022-12-09T04:54:25.636Z,95935.00
2022-12-09T04:56:52.865Z,95931.00
2022-12-09T04:59:19.675Z,95935.00
2022-12-09T05:01:46.646Z,95939.00
2022-12-09T05:04:14.137Z,95942.00
2022-12-09T05:06:41.538Z,95931.00
2022-12-09T05:09:13.229Z,95931.00
2022-12-09T05:11:40.970Z,95936.00
2022-12-09T05:14:07.981Z,95928.00
2022-12-09T05:16:35.198Z,95935.00
2022-12-09T05:19:02.444Z,95930.00
2022-12-09T05:21:30.084Z,95926.00
2022-12-09T05:23:57.531Z,95910.00
2022-12-09T05:26:24.876Z,95917.00
2022-12-09T05:28:52.454Z,95929.00
2022-12-09T05:31:23.625Z,95929.00
2022-12-09T05:33:52.466Z,95933.00
2022-12-09T05:36:24.284Z,95918.00
2022-12-09T05:38:52.137Z,95908.00
2022-12-09T05:41:20.427Z,95905.00
2022-12-09T05:43:47.756Z,95912.00
2022-12-09T05:46:16.131Z,95912.00
2022-12-09T05:48:44.172Z,95899.00
2022-12-09T05:51:21.743Z,95903.00
2022-12-09T05:53:48.805Z,95919.00
2022-12-09T05:56:18.077Z,95893.00
2022-12-09T05:58:45.669Z,95895.00
2022-12-09T06:01:13.698Z,95886.00
2022-12-09T06:03:40.742Z,95898.00
2022-12-09T06:06:14.881Z,95892.00
2022-12-09T06:08:43.673Z,95889.00
2022-12-09T06:11:21.018Z,95880.00
2022-12-09T06:13:49.889Z,95876.00
2022-12-09T06:16:19.801Z,95884.00
2022-12-09T06:18:48.554Z,95879.00
2022-12-09T06:21:17.731Z,95887.00
2022-12-09T06:23:44.966Z,95882.00
2022-12-09T06:26:27.593Z,95876.00
2022-12-09T06:28:56.160Z,95870.00
2022-12-09T06:31:24.021Z,95865.00
2022-12-09T06:33:56.459Z,95872.00
2022-12-09T06:36:25.977Z,95865.00
2022-12-09T06:38:54.757Z,95862.00
2022-12-09T06:41:21.907Z,95851.00
2022-12-09T06:43:49.475Z,95849.00
2022-12-09T06:46:23.743Z,95845.00
2022-12-09T06:48:52.894Z,95842.00
2022-12-09T06:51:20.364Z,95842.00
2022-12-09T06:53:48.192Z,95842.00
2022-12-09T06:56:16.246Z,95845.00
2022-12-09T06:58:45.738Z,95850.00
2022-12-09T07:01:20.050Z,95848.00
2022-12-09T07:03:51.431Z,95849.00
2022-12-09T07:06:34.590Z,95843.00
2022-12-09T07:09:06.556Z,95847.00
2022-12-09T07:11:34.368Z,95823.00
2022-12-09T07:14:02.088Z,95843.00
2022-12-09T07:16:29.392Z,95850.00
2022-12-09T07:18:57.334Z,95854.00
2022-12-09T07:21:25.119Z,95842.00
2022-12-09T07:23:52.753Z,95859.00
2022-12-09T07:26:20.851Z,95853.00
2022-12-09T07:28:50.454Z,95854.00
2022-12-09T07:31:26.583Z,95855.00
2022-12-09T07:33:56.319Z,95857.00
2022-12-09T07:36:25.987Z,95865.00
2022-12-09T07:39:15.485Z,95860.00
2022-12-09T07:41:42.769Z,95847.00
2022-12-09T07:44:11.334Z,95853.00
2022-12-09T07:46:39.749Z,95850.00
2022-12-09T07:49:07.307Z,95850.00
2022-12-09T07:51:34.842Z,95855.00
2022-12-09T07:54:01.855Z,95864.00
2022-12-09T07:56:29.375Z,95859.00
2022-12-09T07:58:57.428Z,95854.00
2022-12-09T08:01:30.389Z,95854.00
2022-12-09T08:03:58.279Z,95850.00
2022-12-09T08:06:29.443Z,95835.00
2022-12-09T08:09:02.267Z,95837.00
2022-12-09T08:11:32.347Z,95842.00
2022-12-09T08:14:08.866Z,95831.00
2022-12-09T08:16:38.373Z,95833.00
2022-12-09T08:19:05.586Z,95839.00
2022-12-09T08:21:33.786Z,95824.00
2022-12-09T08:24:03.514Z,95828.00
2022-12-09T08:26:32.421Z,95823.00
2022-12-09T08:29:00.307Z,95819.00
2022-12-09T08:31:28.601Z,95818.00
2022-12-09T08:33:56.839Z,95810.00
2022-12-09T08:36:28.482Z,95810.00
2022-12-09T08:38:59.436Z,95813.00
2022-12-09T08:41:38.963Z,95805.00
2022-12-09T08:44:17.183Z,95789.00
2022-12-09T08:46:48.240Z,95782.00
2022-12-09T08:49:20.195Z,95780.00
2022-12-09T08:51:50.162Z,95785.00
2022-12-09T08:54:18.095Z,95790.00
2022-12-09T08:56:49.993Z,95790.00
2022-12-09T08:59:17.888Z,95796.00
2022-12-09T09:01:45.657Z,95812.00
2022-12-09T09:04:17.224Z,95806.00
2022-12-09T09:06:48.421Z,95805.00
2022-12-09T09:09:16.882Z,95800.00
2022-12-09T09:11:44.991Z,95795.00
2022-12-09T09:14:14.184Z,95786.00
2022-12-09T09:16:44.117Z,95791.00
2022-12-09T09:19:21.637Z,95786.00
2022-12-09T09:21:49.881Z,95787.00
2022-12-09T09:24:19.899Z,95785.00
2022-12-09T09:26:48.601Z,95786.00
2022-12-09T09:29:18.280Z,95782.00
2022-12-09T09:31:48.644Z,95776.00
2022-12-09T09:34:18.977Z,95772.00
2022-12-09T09:36:46.866Z,95773.00
2022-12-09T09:39:14.013Z,95766.00
2022-12-09T09:41:50.899Z,95765.00
2022-12-09T09:44:38.746Z,95760.00
2022-12-09T09:47:34.748Z,95751.00
2022-12-09T09:50:31.954Z,95751.00
2022-12-09T09:53:11.547Z,95754.00
2022-12-09T09:55:56.908Z,95752.00
2022-12-09T09:58:48.823Z,95755.00
2022-12-09T10:01:19.067Z,95747.00
2022-12-09T10:04:22.809Z,95736.00
2022-12-09T10:07:07.186Z,95737.00
2022-12-09T10:09:58.812Z,95743.00
2022-12-09T10:12:42.647Z,95733.00
2022-12-09T10:15:16.964Z,95733.00
2022-12-09T10:18:09.530Z,95739.00
2022-12-09T10:20:38.523Z,95734.00
2022-12-09T10:23:12.917Z,95735.00
2022-12-09T10:25:49.156Z,95730.00
2022-12-09T10:28:34.688Z,95717.00
2022-12-09T10:31:03.222Z,95716.00
2022-12-09T10:33:39.422Z,95726.00
2022-12-09T10:36:30.803Z,95718.00
2022-12-09T10:39:01.071Z,95717.00
2022-12-09T10:42:18.216Z,95717.00
2022-12-09T10:44:49.045Z,95725.00
2022-12-09T10:47:28.178Z,95721.00
2022-12-09T10:49:56.255Z,95710.00
2022-12-09T10:52:31.079Z,95717.00
2022-12-09T10:54:58.239Z,95710.00
2022-12-09T10:57:29.171Z,95707.00
2022-12-09T11:00:34.629Z,95709.00
2022-12-09T11:03:03.537Z,95698.00
2022-12-09T11:05:34.776Z,95704.00
2022-12-09T11:08:02.932Z,95706.00
2022-12-09T11:10:31.076Z,95698.00
2022-12-09T11:13:09.845Z,95709.00
2022-12-09T11:15:45.098Z,95704.00
2022-12-09T11:18:29.347Z,95696.00
2022-12-09T11:21:08.817Z,95683.00
2022-12-09T11:23:36.809Z,95682.00
2022-12-09T11:26:24.576Z,95679.00
2022-12-09T11:29:17.852Z,95685.00
2022-12-09T11:31:46.249Z,95685.00
2022-12-09T11:34:26.245Z,95682.00
2022-12-09T11:36:58.406Z,95676.00
2022-12-09T11:39:35.214Z,95666.00
2022-12-09T11:42:19.965Z,95662.00
2022-12-09T11:45:04.436Z,95655.00
2022-12-09T11:50:31.629Z,95647.00
2022-12-09T11:53:10.522Z,95647.00
2022-12-09T11:55:47.210Z,95657.00
2022-12-09T11:58:45.395Z,95638.00
2022-12-09T12:01:22.480Z,95619.00
2022-12-09T12:04:11.646Z,95617.00
2022-12-09T12:06:51.189Z,95620.00
2022-12-09T12:09:34.549Z,95621.00
2022-12-09T12:12:25.392Z,95614.00
2022-12-09T12:14:52.822Z,95603.00
2022-12-09T12:17:37.480Z,95604.00
2022-12-09T12:20:06.472Z,95587.00
2022-12-09T12:23:13.839Z,95584.00
2022-12-09T12:25:54.821Z,95595.00
2022-12-09T12:28:36.768Z,95603.00
2022-12-09T12:31:40.877Z,95601.00
2022-12-09T12:34:47.105Z,95608.00
2022-12-09T12:37:28.820Z,95617.00
2022-12-09T12:40:27.169Z,95609.00
2022-12-09T12:43:18.697Z,95606.00
2022-12-09T12:46:26.945Z,95602.00
2022-12-09T12:49:21.999Z,95595.00
2022-12-09T12:52:03.477Z,95580.00
2022-12-09T12:55:14.782Z,95576.00
2022-12-09T12:57:56.540Z,95584.00
2022-12-09T13:00:26.980Z,95581.00
2022-12-09T13:03:40.697Z,95584.00
2022-12-09T13:06:14.671Z,95585.00
2022-12-09T13:08:57.088Z,95588.00
2022-12-09T13:12:11.634Z,95582.00
2022-12-09T13:14:54.254Z,95573.00
2022-12-09T13:17:27.711Z,95576.00
2022-12-09T13:20:01.409Z,95577.00
2022-12-09T13:22:48.106Z,95573.00
2022-12-09T13:25:38.724Z,95576.00
2022-12-09T13:28:35.782Z,95573.00
2022-12-09T13:31:09.590Z,95564.00
2022-12-09T13:33:58.340Z,95567.00
2022-12-09T13:36:41.568Z,95565.00
2022-12-09T13:39:13.794Z,95566.00
2022-12-09T13:42:02.340Z,95565.00
2022-12-09T13:44:34.390Z,95574.00
2022-12-09T13:47:36.883Z,95568.00
2022-12-09T13:50:09.498Z,95567.00
2022-12-09T13:52:53.334Z,95575.00
2022-12-09T13:55:39.953Z,95583.00
2022-12-09T13:58:36.765Z,95594.00
2022-12-09T14:01:12.408Z,95591.00
2022-12-09T14:03:57.582Z,95594.00
2022-12-09T14:06:37.206Z,95593.00
2022-12-09T14:09:23.974Z,95595.00
2022-12-09T14:11:56.406Z,95591.00
2022-12-09T14:14:23.112Z,95591.00
2022-12-09T14:17:01.707Z,95585.00
2022-12-09T14:19:33.876Z,95581.00
2022-12-09T14:22:22.210Z,95576.00
2022-12-09T14:24:57.844Z,95570.00
2022-12-09T14:27:31.856Z,95580.00
2022-12-09T14:30:25.710Z,95567.00
2022-12-09T14:32:57.194Z,95561.00
2022-12-09T14:35:31.989Z,95561.00
2022-12-09T14:38:28.274Z,95567.00
2022-12-09T14:41:13.576Z,95569.00
2022-12-09T14:44:07.601Z,95563.00
2022-12-09T14:46:38.033Z,95569.00
2022-12-09T14:49:25.229Z,95573.00
2022-12-09T14:52:03.033Z,95578.00
2022-12-09T14:54:35.682Z,95568.00
2022-12-09T14:57:14.214Z,95577.00
2022-12-09T14:59:50.417Z,95574.00
2022-12-09T15:02:30.732Z,95572.00
2022-12-09T15:05:01.211Z,95568.00
2022-12-09T15:07:33.767Z,95567.00
2022-12-09T15:10:04.417Z,95564.00
2022-12-09T15:12:41.121Z,95558.00
2022-12-09T15:15:16.113Z,95548.00
2022-12-09T15:17:54.744Z,95548.00
2022-12-09T15:20:34.892Z,95561.00
2022-12-09T15:23:23.885Z,95568.00
2022-12-09T15:26:03.085Z,95573.00
2022-12-09T15:28:33.519Z,95560.00
2022-12-09T15:31:18.537Z,95573.00
2022-12-09T15:33:50.351Z,95572.00
2022-12-09T15:36:40.438Z,95578.00
2022-12-09T15:39:11.626Z,95579.00
2022-12-09T15:42:04.680Z,95590.00
2022-12-09T15:45:04.409Z,95587.00
2022-12-09T15:48:14.420Z,95579.00
2022-12-09T15:50:51.852Z,95576.00
2022-12-09T15:53:44.264Z,95575.00
2022-12-09T15:56:33.760Z,95581.00
2022-12-09T15:59:12.170Z,95568.00
2022-12-09T16:01:39.143Z,95571.00
2022-12-09T16:04:08.555Z,95576.00
2022-12-09T16:06:38.058Z,95574.00
2022-12-09T16:09:18.019Z,95571.00
2022-12-09T16:11:50.227Z,95573.00
2022-12-09T16:14:19.113Z,95563.00
2022-12-09T16:16:58.665Z,95572.00
2022-12-09T16:19:41.785Z,95575.00
2022-12-09T16:22:14.304Z,95590.00
2022-12-09T16:25:27.153Z,95591.00
2022-12-09T16:28:04.055Z,95584.00
2022-12-09T16:30:34.454Z,95593.00
2022-12-09T16:33:04.897Z,95584.00
2022-12-09T16:35:42.858Z,95580.00
2022-12-09T16:38:09.551Z,95578.00
2022-12-09T16:40:45.733Z,95584.00
2022-12-09T16:43:19.027Z,95586.00
2022-12-09T16:46:28.589Z,95584.00
2022-12-09T16:48:57.252Z,95581.00
2022-12-09T16:51:26.084Z,95577.00
2022-12-09T16:53:54.274Z,95581.00
2022-12-09T16:56:27.209Z,95575.00
2022-12-09T16:58:54.386Z,95572.00
2022-12-09T17:01:25.546Z,95575.00
2022-12-09T17:04:32.725Z,95583.00
2022-12-09T17:06:59.564Z,95586.00
2022-12-09T17:09:26.345Z,95575.00
2022-12-09T17:11:53.145Z,95583.00
2022-12-09T17:14:20.223Z,95594.00
2022-12-09T17:16:47.114Z,95586.00
2022-12-09T17:19:14.025Z,95586.00
2022-12-09T17:21:40.853Z,95595.00
2022-12-09T17:24:11.259Z,95595.00
2022-12-09T17:26:38.262Z,95596.00
2022-12-09T17:29:07.036Z,95599.00
2022-12-09T17:31:33.883Z,95599.00
2022-12-09T17:34:00.740Z,95595.00
2022-12-09T17:36:27.470Z,95590.00
2022-12-09T17:38:54.512Z,95594.00
2022-12-09T17:41:23.616Z,95603.00
2022-12-09T17:43:50.597Z,95607.00
2022-12-09T17:46:17.764Z,95603.00
2022-12-09T17:48:44.795Z,95600.00
2022-12-09T17:51:14.955Z,95606.00
2022-12-09T17:53:42.949Z,95605.00
2022-12-09T17:56:16.478Z,95606.00
2022-12-09T17:58:43.571Z,95604.00
2022-12-09T18:01:29.749Z,95604.00
2022-12-09T18:04:04.350Z,95616.00
2022-12-09T18:06:34.388Z,95622.00
2022-12-09T18:09:06.880Z,95619.00
2022-12-09T18:11:35.192Z,95614.00
2022-12-09T18:14:02.226Z,95610.00
2022-12-09T18:16:29.411Z,95621.00
2022-12-09T18:18:56.313Z,95625.00
2022-12-09T18:21:23.700Z,95627.00
2022-12-09T18:23:50.655Z,95635.00
2022-12-09T18:26:19.760Z,95627.00
2022-12-09T18:28:46.883Z,95643.00
2022-12-09T18:31:19.261Z,95633.00
2022-12-09T18:33:46.644Z,95637.00
2022-12-09T18:36:25.047Z,95644.00
2022-12-09T18:38:53.958Z,95639.00
2022-12-09T18:41:25.340Z,95640.00
2022-12-09T18:43:54.578Z,95631.00
2022-12-09T18:46:34.830Z,95642.00
2022-12-09T18:49:10.083Z,95633.00
2022-12-09T18:51:38.848Z,95640.00
2022-12-09T18:54:06.728Z,95634.00
2022-12-09T18:56:35.029Z,95650.00
2022-12-09T18:59:07.031Z,95643.00
2022-12-09T19:01:38.912Z,95650.00
2022-12-09T19:04:10.490Z,95650.00
2022-12-09T19:06:41.654Z,95654.00
2022-12-09T19:09:16.899Z,95655.00
2022-12-09T19:11:46.166Z,95663.00
2022-12-09T19:14:14.064Z,95658.00
2022-12-09T19:16:42.457Z,95669.00
2022-12-09T19:19:13.947Z,95660.00
2022-12-09T19:21:41.160Z,95660.00
2022-12-09T19:24:16.977Z,95653.00
2022-12-09T19:26:44.861Z,95668.00
2022-12-09T19:29:13.840Z,95658.00
2022-12-09T19:31:47.248Z,95661.00
2022-12-09T19:34:26.732Z,95661.00
2022-12-09T19:36:56.482Z,95665.00
2022-12-09T19:39:28.830Z,95664.00
2022-12-09T19:41:57.169Z,95661.00
2022-12-09T19:44:52.470Z,95667.00
2022-12-09T19:47:13.300Z,95668.00
2022-12-09T19:49:42.022Z,95663.00
2022-12-09T19:52:08.849Z,95672.00
2022-12-09T19:54:35.797Z,95670.00
2022-12-09T19:57:02.648Z,95674.00
2022-12-09T19:59:29.646Z,95668.00
2022-12-09T20:01:56.560Z,95670.00
2022-12-09T20:07:12.531Z,95673.00
2022-12-09T20:09:39.708Z,95677.00
2022-12-09T20:12:06.755Z,95692.00
2022-12-09T20:14:33.755Z,95692.00
2022-12-09T20:17:00.545Z,95694.00
2022-12-09T20:19:27.746Z,95695.00
2022-12-09T20:21:55.041Z,95685.00
2022-12-09T20:24:21.838Z,95690.00
2022-12-09T20:26:48.765Z,95697.00
2022-12-09T20:29:15.812Z,95701.00
2022-12-09T20:31:43.088Z,95702.00
2022-12-09T20:34:18.912Z,95696.00
2022-12-09T20:36:46.628Z,95687.00
2022-12-09T20:39:18.610Z,95691.00
2022-12-09T20:41:46.909Z,95690.00
2022-12-09T20:44:15.942Z,95704.00
2022-12-09T20:46:48.126Z,95697.00
2022-12-09T20:49:15.438Z,95696.00
2022-12-09T20:51:45.385Z,95695.00
2022-12-09T20:54:13.773Z,95698.00
2022-12-09T20:56:41.196Z,95714.00
2022-12-09T20:59:09.991Z,95703.00
2022-12-09T21:01:37.328Z,95710.00
2022-12-09T21:04:06.664Z,95720.00
2022-12-09T21:06:39.596Z,95706.00
2022-12-09T21:09:11.564Z,95703.00
2022-12-09T21:11:38.506Z,95711.00
2022-12-09T21:14:06.935Z,95705.00
2022-12-09T21:16:39.482Z,95710.00
2022-12-09T21:19:10.272Z,95705.00
2022-12-09T21:21:40.294Z,95706.00
2022-12-09T21:24:07.891Z,95710.00
2022-12-09T21:26:34.666Z,95707.00
2022-12-09T21:29:02.209Z,95715.00
2022-12-09T21:31:35.893Z,95718.00
2022-12-09T21:34:06.207Z,95717.00
2022-12-09T21:36:40.087Z,95727.00
2022-12-09T21:39:07.436Z,95727.00
2022-12-09T21:41:36.562Z,95737.00
2022-12-09T21:44:05.309Z,95732.00
2022-12-09T21:46:36.000Z,95743.00
2022-12-09T21:49:05.817Z,95742.00
2022-12-09T21:51:34.289Z,95750.00
2022-12-09T21:54:01.357Z,95752.00
2022-12-09T21:56:32.635Z,95758.00
2022-12-09T21:59:00.084Z,95750.00
2022-12-09T22:01:30.561Z,95759.00
2022-12-09T22:03:59.600Z,95758.00
2022-12-09T22:06:27.749Z,95761.00
2022-12-09T22:08:54.833Z,95753.00
2022-12-09T22:11:29.017Z,95756.00
2022-12-09T22:13:58.595Z,95761.00
2022-12-09T22:16:30.268Z,95765.00
2022-12-09T22:18:59.460Z,95767.00
2022-12-09T22:21:29.805Z,95761.00
2022-12-09T22:24:00.923Z,95753.00
2022-12-09T22:26:28.112Z,95756.00
2022-12-09T22:28:55.955Z,95757.00
2022-12-09T22:31:27.268Z,95757.00
2022-12-09T22:33:59.432Z,95765.00
2022-12-09T22:36:26.652Z,95762.00
2022-12-09T22:38:53.972Z,95766.00
2022-12-09T22:41:25.541Z,95764.00
2022-12-09T22:43:55.293Z,95768.00
2022-12-09T22:46:29.339Z,95773.00
2022-12-09T22:49:00.649Z,95774.00
2022-12-09T22:51:31.116Z,95782.00
2022-12-09T22:54:00.288Z,95781.00
2022-12-09T22:56:27.730Z,95776.00
2022-12-09T22:58:54.728Z,95778.00
2022-12-09T23:01:28.585Z,95780.00
2022-12-09T23:03:57.532Z,95779.00
2022-12-09T23:06:25.961Z,95788.00
2022-12-09T23:08:53.373Z,95784.00
2022-12-09T23:11:24.437Z,95772.00
2022-12-09T23:13:51.490Z,95779.00
2022-12-09T23:16:22.282Z,95779.00
2022-12-09T23:18:51.196Z,95774.00
2022-12-09T23:21:28.813Z,95780.00
2022-12-09T23:23:59.057Z,95784.00
2022-12-09T23:26:28.934Z,95784.00
2022-12-09T23:28:59.458Z,95789.00
2022-12-09T23:31:31.357Z,95776.00
2022-12-09T23:33:59.204Z,95778.00
2022-12-09T23:36:30.956Z,95775.00
2022-12-09T23:38:58.866Z,95772.00
2022-12-09T23:41:26.470Z,95773.00
2022-12-09T23:43:53.973Z,95766.00
2022-12-09T23:46:24.879Z,95770.00
2022-12-09T23:48:53.555Z,95763.00
2022-12-09T23:51:24.920Z,95768.00
2022-12-09T23:53:55.354Z,95766.00
2022-12-09T23:56:25.780Z,95757.00
2022-12-09T23:58:58.448Z,95758.00
